Humacao, PR (00791)

1:07 AM AST on November 18, 2018 (GMT -0400)
Mariana, 3 Humacao, PR | | Change Station
Active Advisory: Coastal Hazard Statement Active Notice: Coastal Hazard Statement

Elev 653 ft 18.13 °N, 65.87 °W | Updated 10 seconds ago

Partly Cloudy
Partly Cloudy
75.4 °F
Feels Like 73 °F
N
0
Wind Variable Wind from ENE
Gusts 0.0 mph

Today
High -- | Low -- °F
--% Chance of Precip.
Yesterday
High -- | Low -- °F
Precip. -- in
Pressure 30.02 in
Visibility 10.0 miles
Clouds Mostly Cloudy 2900 ft
Heat Index 73 °F
Dew Point 75 °F
Humidity 99%
Rainfall 0.00 in
Snow Depth Not available.
6:31 AM 5:45 PM
Waxing Gibbous, 74% visible
METAR TJNR 180453Z AUTO 07005KT 10SM -RA BKN029 26/22 A3002 RMK AO2 SLP165 P0000 T02560222 $
Pressure 30.02 in
Visibility 10.0 miles
Clouds Mostly Cloudy 2900 ft
Heat Index 73 °F
Dew Point 75 °F
Humidity 99%
Rainfall 0.00 in
Snow Depth Not available.
6:31 AM 5:45 PM
Waxing Gibbous, 74% visible
METAR TJNR 180453Z AUTO 07005KT 10SM -RA BKN029 26/22 A3002 RMK AO2 SLP165 P0000 T02560222 $

Get Your Daily Forecast Email!

Thanks for signing up!

Be on the lookout for a verification email in your inbox.

You'll start receiving severe weather alerts in your inbox..

×

10-Day Weather Forecast

Almanac

Astronomy

Nov. 18, 2018 Rise Set
Actual Time
Civil Twilight
Nautical Twilight
Astronomical Twilight
Moon
Length of Visible Light
Length of Day
Tomorrow will be .
, % of the Moon is Illuminated

Today's Extremes

State Highs State Lows

Community

WunderPhotos

Category 6

Welcome to Category 6. This is the collective home for Weather Underground's featured writeups by Dr. Jeff Masters (right), Bob Henson (left), Chris Burt, and other regular contributors.

Nearby

Air Quality

  Air Quality AQ Index Pollutant
Not available.

Snow Depth

Station Depth Elevation

Earthquake Activity

City Distance Mag. Time & Date
Minimum magnitude displayed is 2.5.

Coastal Water Temperatures

Place Temperature

Stations

Nearby Weather Stations

Station Location Temp. Windchill Dew Point Humidity Wind Precip. Elev Updated Type
                   

Watches & Warnings

Coastal Hazard Statement
Issued: 7:25 PM AST Nov. 17, 2018 – National Weather Service

... High rip current risk in effect through Sunday afternoon...

* location... beaches of San Juan and northeast Puerto Rico.

* Timing... through Sunday afternoon.

* Impacts... strong currents that can carry even the best
swimmers out to sea.

Precautionary/preparedness actions...

There is a high risk of rip currents.

Swim near a lifeguard. If caught in a rip current, relax and
float. Don't swim against the current. If able, swim in a
direction following the shoreline. If unable to escape, face the
shore and call or wave for help.